Time;durP1;ratioP1;P1;durP2;ratioP2;P2;SDS_P1;SDS_P2;PMS_P1;PMS_P2;Temp;Humidity;BMP_temperature;BMP_pressure;BME280_temperature;BME280_humidity;BME280_pressure;Samples;Min_cycle;Max_cycle;Signal;HPM_P1;HPM_P2
2021/10/24 00:01:32;;;;;;;5.32;2.58;;;4.50;99.90;;;;;;4978994;28;20037;-79
2021/10/24 00:04:00;;;;;;;6.57;2.50;;;4.50;99.90;;;;;;4978775;28;20034;-78
2021/10/24 00:06:25;;;;;;;7.70;2.47;;;4.50;99.90;;;;;;4979626;28;20027;-78
2021/10/24 00:08:51;;;;;;;2.92;2.30;;;4.50;99.90;;;;;;4979261;28;20417;-78
2021/10/24 00:11:17;;;;;;;3.22;2.47;;;4.50;99.90;;;;;;4980227;28;20031;-78
2021/10/24 00:13:43;;;;;;;5.28;2.70;;;4.40;99.90;;;;;;4980187;28;20023;-78
2021/10/24 00:16:09;;;;;;;6.85;2.80;;;4.40;99.90;;;;;;4962070;28;20027;-78
2021/10/24 00:18:34;;;;;;;5.63;2.35;;;4.30;99.90;;;;;;4979684;28;20460;-78
2021/10/24 00:21:00;;;;;;;8.27;3.13;;;4.30;99.90;;;;;;4977711;28;20034;-78
2021/10/24 00:23:26;;;;;;;5.38;2.75;;;4.20;99.90;;;;;;4980007;28;20026;-77
2021/10/24 00:25:52;;;;;;;5.03;2.92;;;4.20;99.90;;;;;;4979373;28;20038;-77
2021/10/24 00:28:18;;;;;;;6.80;3.10;;;4.20;99.90;;;;;;4979110;28;20019;-76
2021/10/24 00:30:44;;;;;;;6.65;3.00;;;4.20;99.90;;;;;;4978312;28;20019;-78
2021/10/24 00:33:10;;;;;;;7.38;3.58;;;4.10;99.90;;;;;;4978887;28;20323;-77
2021/10/24 00:35:36;;;;;;;5.57;2.50;;;4.00;99.90;;;;;;4981182;28;20037;-75
2021/10/24 00:38:02;;;;;;;7.03;2.75;;;4.00;99.90;;;;;;4978441;28;20023;-77
2021/10/24 00:40:28;;;;;;;7.53;2.58;;;4.00;99.90;;;;;;4978122;28;20158;-78
2021/10/24 00:42:54;;;;;;;6.70;3.03;;;4.00;99.90;;;;;;4978645;28;20038;-77
2021/10/24 00:45:24;;;;;;;4.88;2.90;;;4.00;99.90;;;;;;4978096;28;20027;-78
2021/10/24 00:47:53;;;;;;;6.97;3.20;;;4.00;99.90;;;;;;4976322;28;20042;-78
2021/10/24 00:50:19;;;;;;;7.07;3.20;;;4.00;99.90;;;;;;4977649;28;20023;-77
2021/10/24 00:52:46;;;;;;;6.55;3.22;;;4.00;99.90;;;;;;4977216;28;20087;-77
2021/10/24 00:55:13;;;;;;;4.95;2.65;;;4.00;99.90;;;;;;4977366;28;20027;-78
2021/10/24 00:57:39;;;;;;;3.75;2.45;;;3.90;99.90;;;;;;4978185;28;20085;-78
2021/10/24 01:00:08;;;;;;;7.38;3.10;;;3.90;99.90;;;;;;4978070;28;20034;-76
2021/10/24 01:02:37;;;;;;;6.35;2.78;;;3.90;99.90;;;;;;4977127;28;20035;-77
2021/10/24 01:05:05;;;;;;;6.28;3.03;;;3.90;99.90;;;;;;4959506;28;20033;-78
2021/10/24 01:07:32;;;;;;;4.93;3.03;;;3.80;99.90;;;;;;4961205;28;20030;-78
2021/10/24 01:09:59;;;;;;;6.57;2.67;;;3.90;99.90;;;;;;4978922;28;20034;-79
2021/10/24 01:12:25;;;;;;;5.55;2.78;;;3.80;99.90;;;;;;4962508;28;20436;-79
2021/10/24 01:14:51;;;;;;;6.82;2.95;;;3.80;99.90;;;;;;4981774;28;20106;-77
2021/10/24 01:17:17;;;;;;;4.07;2.83;;;3.70;99.90;;;;;;4979361;28;20070;-78
2021/10/24 01:19:43;;;;;;;3.90;2.25;;;3.70;99.90;;;;;;4962190;28;20085;-77
2021/10/24 01:22:09;;;;;;;2.97;2.00;;;3.70;99.90;;;;;;4979050;28;20455;-79
2021/10/24 01:24:35;;;;;;;6.53;2.70;;;;;;;;;;4978650;28;20031;-78
2021/10/24 01:27:00;;;;;;;7.50;2.85;;;3.70;99.90;;;;;;4988935;28;20031;-76
2021/10/24 01:29:26;;;;;;;6.10;2.70;;;3.70;99.90;;;;;;4970111;28;20023;-76
2021/10/24 01:31:53;;;;;;;6.07;2.95;;;3.70;99.90;;;;;;4985284;28;20583;-76
2021/10/24 01:34:21;;;;;;;9.00;3.75;;;3.70;99.90;;;;;;4978725;28;20084;-78
2021/10/24 01:36:47;;;;;;;5.75;2.75;;;3.70;99.90;;;;;;4977482;28;20030;-78
2021/10/24 01:39:15;;;;;;;7.82;3.10;;;3.70;99.90;;;;;;4978055;28;20027;-78
2021/10/24 01:41:41;;;;;;;6.53;2.38;;;3.70;99.90;;;;;;4977817;28;20023;-78
2021/10/24 01:44:07;;;;;;;4.25;2.47;;;3.70;99.90;;;;;;4980653;28;20029;-76
2021/10/24 01:46:33;;;;;;;8.30;3.10;;;3.70;99.90;;;;;;4978539;28;20069;-76
2021/10/24 01:48:59;;;;;;;6.53;2.80;;;3.60;99.90;;;;;;4976792;28;20019;-77
2021/10/24 01:51:24;;;;;;;8.38;2.88;;;3.60;99.90;;;;;;4976864;28;20501;-76
2021/10/24 01:53:51;;;;;;;5.40;2.70;;;3.60;99.90;;;;;;4977419;28;20454;-77
2021/10/24 01:56:16;;;;;;;5.53;2.17;;;3.60;99.90;;;;;;4960038;28;20134;-76
2021/10/24 01:58:43;;;;;;;4.00;2.20;;;3.50;99.90;;;;;;4989500;28;20029;-74
2021/10/24 02:01:09;;;;;;;7.93;3.13;;;3.60;99.90;;;;;;4967746;28;20041;-75
2021/10/24 02:03:36;;;;;;;5.65;2.58;;;3.60;99.90;;;;;;4957535;28;20110;-75
2021/10/24 02:06:03;;;;;;;3.70;2.28;;;3.60;99.90;;;;;;4958304;28;20054;-77
2021/10/24 02:08:29;;;;;;;5.18;2.70;;;3.60;99.90;;;;;;4959699;28;20027;-75
2021/10/24 02:10:54;;;;;;;5.25;2.45;;;3.60;99.90;;;;;;4977649;28;20106;-78
2021/10/24 02:13:20;;;;;;;6.13;3.88;;;3.60;99.90;;;;;;4958793;28;20063;-76
2021/10/24 02:15:46;;;;;;;3.00;2.22;;;3.60;99.90;;;;;;4976277;28;20034;-77
2021/10/24 02:18:13;;;;;;;3.80;2.35;;;3.60;99.90;;;;;;4959249;28;20033;-77
2021/10/24 02:20:41;;;;;;;5.70;2.95;;;3.60;99.90;;;;;;4976923;28;20030;-78
2021/10/24 02:23:07;;;;;;;3.22;2.65;;;3.60;99.90;;;;;;4963149;28;20023;-77
2021/10/24 02:25:34;;;;;;;7.90;2.58;;;3.50;99.90;;;;;;4982067;28;20022;-77
2021/10/24 02:28:01;;;;;;;6.18;2.70;;;3.50;99.90;;;;;;4981266;28;20471;-76
2021/10/24 02:30:26;;;;;;;8.57;3.22;;;3.50;99.90;;;;;;4975893;28;20126;-78
2021/10/24 02:32:52;;;;;;;6.32;3.45;;;3.50;99.90;;;;;;4976126;28;20050;-77
2021/10/24 02:35:20;;;;;;;5.22;3.28;;;3.50;99.90;;;;;;4977655;28;20054;-78
2021/10/24 02:37:46;;;;;;;5.88;2.92;;;3.50;99.90;;;;;;4977034;28;20026;-78
2021/10/24 02:40:12;;;;;;;9.30;3.35;;;3.40;99.90;;;;;;4976963;28;20166;-79
2021/10/24 02:42:39;;;;;;;4.32;2.95;;;3.40;99.90;;;;;;4977885;28;20444;-77
2021/10/24 02:45:05;;;;;;;6.45;3.28;;;3.50;99.90;;;;;;4962335;28;20488;-77
2021/10/24 02:47:31;;;;;;;8.10;3.70;;;3.40;99.90;;;;;;4980159;28;20077;-79
2021/10/24 02:49:57;;;;;;;5.68;3.15;;;3.40;99.90;;;;;;4979909;28;20019;-79
2021/10/24 02:52:23;;;;;;;8.23;3.72;;;3.40;99.90;;;;;;4960885;28;20074;-79
2021/10/24 02:54:49;;;;;;;9.63;3.75;;;3.30;99.90;;;;;;4960223;28;20027;-76
2021/10/24 02:57:14;;;;;;;6.88;3.08;;;3.30;99.90;;;;;;4959336;28;20027;-78
2021/10/24 02:59:40;;;;;;;4.47;2.90;;;3.30;99.90;;;;;;4959155;28;20106;-78
2021/10/24 03:02:07;;;;;;;5.68;3.05;;;3.20;99.90;;;;;;4977286;28;20434;-76
2021/10/24 03:04:33;;;;;;;8.27;3.13;;;3.20;99.90;;;;;;4977027;28;20027;-78
2021/10/24 03:06:59;;;;;;;5.88;3.13;;;3.20;99.90;;;;;;4983295;28;20050;-75
2021/10/24 03:09:25;;;;;;;9.48;3.80;;;3.10;99.90;;;;;;4995444;28;20022;-76
2021/10/24 03:11:51;;;;;;;5.28;3.75;;;3.10;99.90;;;;;;4999079;28;20029;-76
2021/10/24 03:14:17;;;;;;;6.78;3.92;;;3.10;99.90;;;;;;4997982;28;20031;-77
2021/10/24 03:16:43;;;;;;;6.13;3.58;;;3.10;99.90;;;;;;4996090;28;20035;-75
2021/10/24 03:19:10;;;;;;;10.02;4.00;;;3.10;99.90;;;;;;4975225;28;20037;-76
2021/10/24 03:21:35;;;;;;;5.22;3.53;;;3.10;99.90;;;;;;4980963;28;20038;-78
2021/10/24 03:24:04;;;;;;;5.13;3.15;;;3.00;99.90;;;;;;4982332;28;20027;-77
2021/10/24 03:26:31;;;;;;;5.30;2.95;;;3.10;99.90;;;;;;4982333;28;20341;-77
2021/10/24 03:28:57;;;;;;;8.57;4.00;;;3.10;99.90;;;;;;4981891;28;20034;-75
2021/10/24 03:31:23;;;;;;;5.38;3.67;;;3.10;99.90;;;;;;4982370;28;20027;-75
2021/10/24 03:33:49;;;;;;;9.32;3.60;;;3.10;99.90;;;;;;4966419;28;20026;-77
2021/10/24 03:36:14;;;;;;;4.13;2.97;;;3.10;99.90;;;;;;4982065;28;20031;-78
2021/10/24 03:38:42;;;;;;;4.65;3.35;;;3.10;99.90;;;;;;4981181;28;20034;-78
2021/10/24 03:41:08;;;;;;;4.65;2.83;;;3.10;99.90;;;;;;4980606;28;20027;-78
2021/10/24 03:43:34;;;;;;;5.07;3.40;;;3.10;99.90;;;;;;4962522;28;20109;-77
2021/10/24 03:46:00;;;;;;;5.63;3.22;;;3.10;99.90;;;;;;4981089;28;20023;-77
2021/10/24 03:48:26;;;;;;;6.55;3.78;;;3.10;99.90;;;;;;4979531;28;20030;-78
2021/10/24 03:50:52;;;;;;;10.18;4.82;;;3.10;99.90;;;;;;4962459;28;20027;-78
2021/10/24 03:53:18;;;;;;;7.30;3.78;;;3.10;99.90;;;;;;4963861;28;20405;-78
2021/10/24 03:55:46;;;;;;;6.25;3.97;;;3.10;99.90;;;;;;4963526;28;20047;-77
2021/10/24 03:58:15;;;;;;;6.30;4.30;;;3.10;99.90;;;;;;4993392;22;20594;-80
2021/10/24 04:00:42;;;;;;;7.47;4.25;;;3.10;99.90;;;;;;5000886;28;20052;-81
2021/10/24 04:03:08;;;;;;;7.05;4.25;;;3.10;99.90;;;;;;5021282;28;20101;-82
2021/10/24 04:05:34;;;;;;;7.97;4.13;;;3.00;99.90;;;;;;5004197;28;20458;-81
2021/10/24 04:08:00;;;;;;;8.43;4.10;;;3.00;99.90;;;;;;5021018;28;20104;-82
2021/10/24 04:10:27;;;;;;;7.47;4.68;;;3.00;99.90;;;;;;5020491;28;20097;-82
2021/10/24 04:12:54;;;;;;;9.55;5.28;;;3.00;99.90;;;;;;5013859;28;20040;-83
2021/10/24 04:15:21;;;;;;;7.25;3.75;;;3.00;99.90;;;;;;5018833;28;20037;-82
2021/10/24 04:17:47;;;;;;;8.05;4.55;;;2.90;99.90;;;;;;5037060;28;20064;-82
2021/10/24 04:20:16;;;;;;;8.13;4.85;;;2.90;99.90;;;;;;5012015;28;20041;-82
2021/10/24 04:22:45;;;;;;;10.27;5.35;;;2.90;99.90;;;;;;5020803;28;20026;-81
2021/10/24 04:25:12;;;;;;;6.60;4.20;;;2.90;99.90;;;;;;5021098;28;20033;-82
2021/10/24 04:27:38;;;;;;;7.38;4.80;;;3.00;99.90;;;;;;5002096;28;20038;-82
2021/10/24 04:30:07;;;;;;;7.47;4.93;;;3.00;99.90;;;;;;5022075;28;20026;-82
2021/10/24 04:32:34;;;;;;;6.85;4.47;;;2.90;99.90;;;;;;5024247;28;20106;-82
2021/10/24 04:35:00;;;;;;;7.13;4.00;;;2.90;99.90;;;;;;5033274;28;20040;-82
2021/10/24 04:37:25;;;;;;;7.50;4.50;;;3.00;99.90;;;;;;5014868;28;20026;-82
2021/10/24 04:39:51;;;;;;;6.95;5.15;;;2.90;99.90;;;;;;5038410;28;20049;-82
2021/10/24 04:42:17;;;;;;;6.90;4.60;;;2.90;99.90;;;;;;5051838;28;20032;-82
2021/10/24 04:44:44;;;;;;;10.73;5.28;;;2.90;99.90;;;;;;5032676;28;20021;-82
2021/10/24 04:47:10;;;;;;;9.27;4.60;;;2.90;99.90;;;;;;5043571;28;20025;-82
2021/10/24 04:49:36;;;;;;;14.30;5.57;;;2.90;99.90;;;;;;5048315;28;20037;-82
2021/10/24 04:52:02;;;;;;;10.48;5.05;;;2.90;99.90;;;;;;5052644;28;20026;-80
2021/10/24 04:54:28;;;;;;;12.05;5.63;;;2.90;99.90;;;;;;5052869;28;20026;-81
2021/10/24 04:56:53;;;;;;;11.85;6.07;;;2.90;99.90;;;;;;5046855;28;20052;-81
2021/10/24 04:59:19;;;;;;;9.27;5.53;;;2.90;99.90;;;;;;5046023;28;20041;-82
2021/10/24 05:01:47;;;;;;;10.27;5.70;;;2.90;99.90;;;;;;5039131;28;20032;-82
2021/10/24 05:04:13;;;;;;;9.50;5.70;;;2.90;99.90;;;;;;5017262;28;20018;-81
2021/10/24 05:06:39;;;;;;;7.75;4.72;;;2.90;99.90;;;;;;5034454;28;20021;-81
2021/10/24 05:09:05;;;;;;;12.32;6.03;;;2.80;99.90;;;;;;5032628;28;20054;-80
2021/10/24 05:11:31;;;;;;;10.95;5.47;;;2.80;99.90;;;;;;5016199;28;20026;-81
2021/10/24 05:14:00;;;;;;;7.40;4.70;;;2.80;99.90;;;;;;5032236;28;20049;-81
2021/10/24 05:16:26;;;;;;;9.32;6.10;;;2.80;99.90;;;;;;5011577;28;20084;-81
2021/10/24 05:18:51;;;;;;;12.82;6.30;;;2.70;99.90;;;;;;5024269;28;20490;-81
2021/10/24 05:21:17;;;;;;;6.40;4.53;;;2.70;99.90;;;;;;5029399;28;20039;-80
2021/10/24 05:23:43;;;;;;;10.38;6.43;;;2.70;99.90;;;;;;5031798;28;20032;-81
2021/10/24 05:26:09;;;;;;;7.60;4.95;;;2.70;99.90;;;;;;5029746;28;20111;-81
2021/10/24 05:28:35;;;;;;;7.70;4.30;;;2.70;99.90;;;;;;5024680;28;20026;-81
2021/10/24 05:31:01;;;;;;;9.68;5.65;;;2.70;99.90;;;;;;5007619;28;20145;-81
2021/10/24 05:33:26;;;;;;;9.88;5.50;;;2.70;99.90;;;;;;5026605;28;20538;-82
2021/10/24 05:35:53;;;;;;;8.25;5.82;;;2.70;99.90;;;;;;5029352;28;20152;-81
2021/10/24 05:40:55;;;;;;;9.13;6.15;;;2.70;99.90;;;;;;4746732;26;20060;-79
2021/10/24 05:43:20;;;;;;;14.95;6.68;;;2.70;99.90;;;;;;5006985;28;20335;-80
2021/10/24 05:45:47;;;;;;;9.75;6.20;;;2.70;99.90;;;;;;5023387;28;20085;-80
2021/10/24 05:48:13;;;;;;;9.10;5.10;;;2.70;99.90;;;;;;5022154;28;20057;-81
2021/10/24 05:50:40;;;;;;;9.52;5.20;;;2.70;99.90;;;;;;4990539;28;20030;-81
2021/10/24 05:53:06;;;;;;;7.20;4.95;;;2.70;99.90;;;;;;5024767;28;20031;-81
2021/10/24 05:55:33;;;;;;;6.35;4.97;;;2.70;99.90;;;;;;5018031;28;20410;-79
2021/10/24 05:57:59;;;;;;;11.45;5.63;;;2.60;99.90;;;;;;5018691;28;20026;-80
2021/10/24 06:00:25;;;;;;;10.07;5.00;;;2.70;99.90;;;;;;5017186;28;20136;-80
2021/10/24 06:02:51;;;;;;;8.75;5.05;;;2.70;99.90;;;;;;5009534;28;20032;-81
2021/10/24 06:05:17;;;;;;;9.60;5.38;;;2.70;99.90;;;;;;4998005;28;20059;-82
2021/10/24 06:07:42;;;;;;;10.05;5.50;;;2.70;99.90;;;;;;5014656;28;20066;-80
2021/10/24 06:15:09;;;;;;;7.72;5.90;;;2.60;99.90;;;;;;5016998;28;20161;-80
2021/10/24 06:17:35;;;;;;;9.77;6.38;;;2.70;99.90;;;;;;5017402;28;20029;-81
2021/10/24 06:20:01;;;;;;;10.63;5.65;;;2.70;99.90;;;;;;5017679;28;20045;-81
2021/10/24 06:22:29;;;;;;;12.00;6.40;;;2.70;99.90;;;;;;5021548;28;20022;-81
2021/10/24 06:24:55;;;;;;;8.80;5.97;;;2.80;99.90;;;;;;5026486;28;20171;-80
2021/10/24 06:27:21;;;;;;;9.68;6.80;;;2.80;99.90;;;;;;5030315;28;20030;-81
2021/10/24 06:29:47;;;;;;;12.27;6.38;;;2.80;99.90;;;;;;5020134;28;20038;-82
2021/10/24 06:32:12;;;;;;;9.57;6.43;;;2.80;99.90;;;;;;5022589;28;20044;-80
2021/10/24 06:34:38;;;;;;;9.38;6.30;;;2.90;99.90;;;;;;5007761;28;20046;-83
2021/10/24 06:37:04;;;;;;;12.15;6.00;;;2.90;99.90;;;;;;5006768;28;20031;-82
2021/10/24 06:39:30;;;;;;;8.30;5.85;;;2.90;99.90;;;;;;5011122;28;20042;-80
2021/10/24 06:41:56;;;;;;;7.80;5.90;;;2.90;99.90;;;;;;5011415;28;20019;-81
2021/10/24 06:44:21;;;;;;;8.05;5.65;;;2.90;99.90;;;;;;5010434;28;20026;-79
2021/10/24 06:46:50;;;;;;;11.73;5.88;;;3.00;99.90;;;;;;5013631;28;20021;-80
2021/10/24 06:49:15;;;;;;;11.63;6.07;;;3.10;99.90;;;;;;5025347;28;20081;-82
2021/10/24 06:51:41;;;;;;;13.95;5.95;;;3.20;99.90;;;;;;5010526;28;20030;-80
2021/10/24 06:54:07;;;;;;;10.13;6.10;;;3.20;99.90;;;;;;5028081;28;20034;-80
2021/10/24 06:56:33;;;;;;;8.32;5.18;;;3.30;99.90;;;;;;5006835;28;20524;-80
2021/10/24 06:58:58;;;;;;;9.30;5.65;;;3.40;99.90;;;;;;5009827;28;20052;-80
2021/10/24 07:01:24;;;;;;;8.35;5.25;;;3.50;99.90;;;;;;5020825;28;20030;-80
2021/10/24 07:03:50;;;;;;;7.10;4.85;;;3.50;99.90;;;;;;5009016;28;20048;-82
2021/10/24 07:06:16;;;;;;;6.32;4.57;;;3.60;99.90;;;;;;4991397;28;20121;-80
2021/10/24 07:08:42;;;;;;;9.18;5.18;;;3.70;99.90;;;;;;5003549;28;20471;-80
2021/10/24 07:11:08;;;;;;;9.25;5.10;;;3.80;99.90;;;;;;5019584;28;20092;-80
2021/10/24 07:13:34;;;;;;;7.50;5.32;;;3.90;99.90;;;;;;5024612;28;20037;-80
2021/10/24 07:16:00;;;;;;;7.80;5.00;;;4.00;99.90;;;;;;5025089;28;20041;-81
2021/10/24 07:18:27;;;;;;;5.70;4.63;;;4.00;99.90;;;;;;5026938;28;20274;-80
2021/10/24 07:20:53;;;;;;;7.22;4.30;;;4.10;99.90;;;;;;5006110;28;20094;-79
2021/10/24 07:23:18;;;;;;;7.25;4.28;;;4.30;99.90;;;;;;5025340;28;20160;-80
2021/10/24 07:25:44;;;;;;;8.43;4.72;;;4.40;99.90;;;;;;5024766;28;20034;-81
2021/10/24 07:28:10;;;;;;;5.93;4.00;;;4.50;99.90;;;;;;5013500;28;20049;-81
2021/10/24 07:30:36;;;;;;;8.85;4.47;;;4.60;99.90;;;;;;5024611;28;20022;-83
2021/10/24 07:33:02;;;;;;;5.75;4.07;;;4.70;99.90;;;;;;5027295;28;20990;-80
2021/10/24 07:35:28;;;;;;;7.30;4.15;;;4.80;99.90;;;;;;5026844;28;20036;-81
2021/10/24 07:37:54;;;;;;;9.15;4.18;;;4.90;99.90;;;;;;5023319;28;20034;-80
2021/10/24 07:40:21;;;;;;;5.13;3.90;;;5.00;99.90;;;;;;5017600;28;20040;-80
2021/10/24 07:42:47;;;;;;;7.82;4.30;;;5.00;99.90;;;;;;5018310;28;20633;-81
2021/10/24 07:45:13;;;;;;;6.00;3.75;;;5.10;99.90;;;;;;5002765;28;20041;-81
2021/10/24 07:47:40;;;;;;;7.03;3.35;;;5.20;99.90;;;;;;4997990;28;20042;-80
2021/10/24 07:50:10;;;;;;;7.05;3.50;;;5.30;99.90;;;;;;4982427;28;20030;-82
2021/10/24 07:52:37;;;;;;;5.20;3.70;;;5.40;99.90;;;;;;5011117;28;20018;-79
2021/10/24 07:55:05;;;;;;;5.55;3.85;;;5.60;99.50;;;;;;5020267;28;20029;-81
2021/10/24 07:57:30;;;;;;;6.50;4.05;;;5.80;98.90;;;;;;5024537;28;20030;-81
2021/10/24 07:59:56;;;;;;;6.22;3.40;;;5.90;97.90;;;;;;5022459;28;20032;-80
2021/10/24 08:02:22;;;;;;;5.53;3.75;;;5.90;97.40;;;;;;5005612;28;20090;-80
2021/10/24 08:04:49;;;;;;;6.80;3.53;;;6.00;96.90;;;;;;5006628;28;20050;-80
2021/10/24 08:07:16;;;;;;;5.13;3.63;;;6.10;96.60;;;;;;5006446;28;20022;-79
2021/10/24 08:09:43;;;;;;;6.22;3.28;;;6.20;96.10;;;;;;4989087;28;20074;-80
2021/10/24 08:12:10;;;;;;;6.55;3.65;;;6.30;95.80;;;;;;5007874;28;20045;-79
2021/10/24 08:14:36;;;;;;;8.10;3.75;;;6.40;95.40;;;;;;4989894;28;20030;-79
2021/10/24 08:17:05;;;;;;;5.55;3.08;;;6.60;95.40;;;;;;5005906;28;20038;-80
2021/10/24 08:19:31;;;;;;;3.67;2.92;;;6.90;95.20;;;;;;4988588;28;20086;-81
2021/10/24 08:21:57;;;;;;;4.53;2.97;;;7.20;94.60;;;;;;5004667;28;20085;-81
2021/10/24 08:24:36;;;;;;;2.83;2.55;;;7.30;93.50;;;;;;5018856;28;20370;-86
2021/10/24 08:27:02;;;;;;;4.20;2.90;;;7.40;93.10;;;;;;5008303;28;20068;-84
2021/10/24 08:29:28;;;;;;;4.13;3.00;;;7.60;93.00;;;;;;5018386;28;20103;-80
2021/10/24 08:31:54;;;;;;;4.30;2.92;;;7.80;92.40;;;;;;4993284;28;20072;-82
2021/10/24 08:34:22;;;;;;;5.43;3.65;;;7.90;91.90;;;;;;4999896;28;20022;-79
2021/10/24 08:36:49;;;;;;;5.95;3.70;;;8.00;90.80;;;;;;4999199;28;20358;-79
2021/10/24 08:39:15;;;;;;;5.05;3.40;;;8.00;90.70;;;;;;4982751;28;20480;-79
2021/10/24 08:41:41;;;;;;;4.45;3.10;;;8.10;90.50;;;;;;5020128;28;20044;-80
2021/10/24 08:44:07;;;;;;;6.72;2.65;;;8.20;90.60;;;;;;5002844;28;20041;-78
2021/10/24 08:46:33;;;;;;;3.60;3.13;;;8.50;90.40;;;;;;5022819;28;20028;-80
2021/10/24 08:48:59;;;;;;;4.32;3.05;;;8.80;89.10;;;;;;5021173;28;20123;-81
2021/10/24 08:51:29;;;;;;;8.02;3.08;;;9.10;87.50;;;;;;5020422;28;20033;-79
2021/10/24 08:53:56;;;;;;;6.13;3.10;;;9.30;86.70;;;;;;5019327;28;20100;-79
2021/10/24 08:56:28;;;;;;;5.25;3.38;;;9.50;85.70;;;;;;5019767;28;20045;-79
2021/10/24 08:58:54;;;;;;;;;;;9.70;83.70;;;;;;5019943;28;20091;-79
2021/10/24 09:01:20;;;;;;;6.35;2.85;;;9.80;83.30;;;;;;4997028;28;19909;-79
2021/10/24 09:04:07;;;;;;;3.20;1.92;;;9.90;82.50;;;;;;5019824;28;20022;-78
2021/10/24 09:06:48;;;;;;;3.28;2.63;;;10.10;82.30;;;;;;5021318;28;20471;-79
2021/10/24 09:09:20;;;;;;;3.28;2.00;;;10.30;81.50;;;;;;5004296;28;20045;-80
2021/10/24 09:12:07;;;;;;;6.15;2.88;;;10.50;80.60;;;;;;5018253;28;20105;-79
2021/10/24 09:14:45;;;;;;;3.35;2.25;;;10.70;78.90;;;;;;5019639;28;20084;-79
2021/10/24 09:17:16;;;;;;;3.67;2.25;;;10.70;78.60;;;;;;5021463;28;20103;-80
2021/10/24 09:19:44;;;;;;;3.95;2.25;;;10.80;78.00;;;;;;5021021;28;20022;-79
2021/10/24 09:22:25;;;;;;;2.50;1.83;;;11.10;77.40;;;;;;5021113;28;20466;-78
2021/10/24 09:25:06;;;;;;;2.53;1.70;;;11.90;75.70;;;;;;5001686;28;20029;-79
2021/10/24 09:27:54;;;;;;;2.97;1.98;;;12.80;72.90;;;;;;5019441;28;20050;-79
2021/10/24 09:30:34;;;;;;;3.10;1.80;;;13.30;69.00;;;;;;5013807;28;20046;-77
2021/10/24 09:33:10;;;;;;;2.42;1.67;;;13.70;67.30;;;;;;5002670;28;20057;-79
2021/10/24 09:35:40;;;;;;;4.15;1.80;;;14.20;64.90;;;;;;5002385;28;20043;-78
2021/10/24 09:38:11;;;;;;;2.65;1.67;;;14.10;63.30;;;;;;5021207;28;20298;-78
2021/10/24 09:40:42;;;;;;;1.73;1.63;;;13.70;63.80;;;;;;5002401;28;20029;-80
2021/10/24 09:43:35;;;;;;;5.32;2.53;;;13.20;64.60;;;;;;5019995;28;20379;-78
2021/10/24 09:46:02;;;;;;;2.47;1.60;;;12.90;65.30;;;;;;5018010;28;20048;-79
2021/10/24 09:48:30;;;;;;;1.70;1.60;;;12.70;66.00;;;;;;5017743;28;20037;-79
2021/10/24 09:51:03;;;;;;;3.03;1.92;;;12.60;66.80;;;;;;5018485;28;20033;-80
2021/10/24 09:53:35;;;;;;;1.67;1.52;;;12.40;66.70;;;;;;5018110;28;20093;-79
2021/10/24 09:56:04;;;;;;;1.77;1.65;;;12.30;67.20;;;;;;5019056;28;20029;-80
2021/10/24 09:58:32;;;;;;;2.08;1.85;;;12.30;67.10;;;;;;5017943;28;20037;-80
2021/10/24 10:01:02;;;;;;;1.98;1.70;;;12.10;67.40;;;;;;5012198;28;20030;-81
2021/10/24 10:03:28;;;;;;;3.78;1.77;;;12.00;67.90;;;;;;5021930;28;20026;-81
2021/10/24 10:05:55;;;;;;;3.33;2.10;;;12.00;67.60;;;;;;5020416;28;20148;-80
2021/10/24 10:08:21;;;;;;;2.08;1.33;;;11.80;68.00;;;;;;5020688;28;20022;-80
2021/10/24 10:10:54;;;;;;;3.03;1.90;;;11.90;68.30;;;;;;5021386;28;20087;-79
2021/10/24 10:13:23;;;;;;;2.80;1.90;;;11.90;68.10;;;;;;5002643;28;20032;-80
2021/10/24 10:15:51;;;;;;;1.98;1.52;;;11.90;67.80;;;;;;5019575;28;20029;-80
2021/10/24 10:18:18;;;;;;;2.63;1.80;;;11.80;67.90;;;;;;5020462;28;20045;-79
2021/10/24 10:20:50;;;;;;;3.38;1.90;;;11.70;67.70;;;;;;5019677;28;20056;-80
2021/10/24 10:23:43;;;;;;;3.50;1.90;;;11.70;68.60;;;;;;5001280;28;20080;-80
2021/10/24 10:26:41;;;;;;;4.28;1.60;;;11.80;67.80;;;;;;5000014;28;20124;-79
2021/10/24 10:29:12;;;;;;;1.30;1.20;;;11.90;67.80;;;;;;5018538;28;20033;-79
2021/10/24 10:31:40;;;;;;;1.92;1.20;;;12.20;66.90;;;;;;5010030;28;20014;-79
2021/10/24 10:34:10;;;;;;;2.30;1.13;;;12.30;66.30;;;;;;5017499;28;20109;-80
2021/10/24 10:36:46;;;;;;;3.17;1.75;;;12.50;65.90;;;;;;5034575;28;20029;-78
2021/10/24 10:39:30;;;;;;;1.95;1.65;;;12.50;64.90;;;;;;5024924;28;20455;-81
2021/10/24 10:42:00;;;;;;;2.10;1.42;;;12.60;64.20;;;;;;5020404;28;20026;-81
2021/10/24 10:44:26;;;;;;;2.47;1.88;;;12.60;64.10;;;;;;5020092;28;20022;-80
2021/10/24 10:46:53;;;;;;;3.47;2.05;;;12.60;63.30;;;;;;5020166;28;20029;-78
2021/10/24 10:49:21;;;;;;;2.55;1.70;;;12.50;64.10;;;;;;5001949;28;20025;-79
2021/10/24 10:51:48;;;;;;;2.92;1.70;;;12.50;63.80;;;;;;5020795;28;20022;-80
2021/10/24 10:54:14;;;;;;;6.55;2.13;;;12.40;63.30;;;;;;5022284;28;20091;-80
2021/10/24 10:56:45;;;;;;;4.05;1.70;;;12.40;63.60;;;;;;5002939;28;20395;-80
2021/10/24 10:59:15;;;;;;;2.83;1.70;;;12.40;64.20;;;;;;5002548;28;20196;-80
2021/10/24 11:01:41;;;;;;;4.03;1.67;;;12.60;64.20;;;;;;5012674;28;20028;-78
2021/10/24 11:04:18;;;;;;;1.58;1.30;;;12.60;63.50;;;;;;4987053;28;20077;-79
2021/10/24 11:06:48;;;;;;;2.60;1.73;;;12.60;63.70;;;;;;5027634;28;20037;-82
2021/10/24 11:09:38;;;;;;;2.75;1.65;;;12.70;64.00;;;;;;5027467;28;20037;-80
2021/10/24 11:12:08;;;;;;;2.90;1.50;;;13.00;63.30;;;;;;5028203;28;20060;-80
2021/10/24 11:14:40;;;;;;;3.38;2.00;;;13.20;62.60;;;;;;5029808;28;20049;-80
2021/10/24 11:17:06;;;;;;;2.45;2.03;;;13.20;60.50;;;;;;5027580;28;20025;-80
2021/10/24 11:19:39;;;;;;;2.70;1.98;;;13.10;60.60;;;;;;5029063;28;20100;-80
2021/10/24 11:22:10;;;;;;;1.98;1.42;;;13.20;60.90;;;;;;5028748;28;20033;-79
2021/10/24 11:24:40;;;;;;;1.52;1.30;;;13.30;61.00;;;;;;5028501;28;20034;-81
2021/10/24 11:27:14;;;;;;;2.42;1.35;;;13.90;60.80;;;;;;5017938;28;20026;-80
2021/10/24 11:29:58;;;;;;;1.65;1.55;;;14.10;59.10;;;;;;5007874;28;20160;-79
2021/10/24 11:32:35;;;;;;;3.08;1.30;;;13.90;59.00;;;;;;5022823;28;20114;-77
2021/10/24 11:35:14;;;;;;;1.02;1.02;;;13.80;59.40;;;;;;5017082;28;20046;-78
2021/10/24 11:37:46;;;;;;;3.15;1.73;;;13.90;59.50;;;;;;4997166;28;20107;-78
2021/10/24 11:40:17;;;;;;;2.95;1.55;;;14.20;58.40;;;;;;5029443;28;20041;-80
2021/10/24 11:43:20;;;;;;;2.03;1.63;;;14.30;56.50;;;;;;5031167;28;20022;-79
2021/10/24 11:45:47;;;;;;;;;;;14.30;56.90;;;;;;5031680;28;20261;-77
2021/10/24 11:48:26;;;;;;;2.50;1.67;;;14.30;57.10;;;;;;5030276;28;19918;-81
2021/10/24 11:50:54;;;;;;;2.03;1.60;;;14.30;56.90;;;;;;5021664;28;20053;-80
2021/10/24 11:53:27;;;;;;;3.50;1.80;;;14.00;56.80;;;;;;5021493;28;20101;-80
2021/10/24 11:55:55;;;;;;;2.20;1.77;;;13.70;57.90;;;;;;5020168;28;20027;-79
2021/10/24 11:58:35;;;;;;;2.22;1.60;;;13.50;58.10;;;;;;5022619;28;20033;-81
2021/10/24 12:01:20;;;;;;;2.90;1.98;;;13.50;58.20;;;;;;5020560;28;20062;-81
2021/10/24 12:03:53;;;;;;;2.30;1.45;;;13.50;58.90;;;;;;5010437;28;20163;-79
2021/10/24 12:06:47;;;;;;;3.85;1.48;;;13.60;58.30;;;;;;5018819;28;20030;-80
2021/10/24 12:09:14;;;;;;;2.35;1.30;;;14.00;58.10;;;;;;5017352;28;20015;-79
2021/10/24 12:11:47;;;;;;;1.20;1.02;;;14.40;56.90;;;;;;5018759;28;20018;-78
2021/10/24 12:14:13;;;;;;;1.92;1.40;;;14.60;56.00;;;;;;5024384;28;20460;-80
2021/10/24 12:16:46;;;;;;;1.88;1.20;;;14.70;56.20;;;;;;5010782;28;20023;-80
2021/10/24 12:19:15;;;;;;;1.58;1.10;;;14.80;56.10;;;;;;5007610;28;20417;-80
2021/10/24 12:21:53;;;;;;;4.50;1.90;;;14.90;55.50;;;;;;4999551;28;20134;-80
2021/10/24 12:24:22;;;;;;;2.10;1.95;;;14.80;54.70;;;;;;4999771;28;20025;-80
2021/10/24 12:26:48;;;;;;;1.88;1.75;;;14.60;54.90;;;;;;4998174;28;20103;-82
2021/10/24 12:29:18;;;;;;;2.85;1.73;;;14.50;55.50;;;;;;5021344;28;20030;-81
2021/10/24 12:32:03;;;;;;;1.60;1.50;;;14.30;55.70;;;;;;5015372;28;20037;-81
2021/10/24 12:34:30;;;;;;;3.00;1.80;;;14.30;56.00;;;;;;5016775;28;20022;-81
2021/10/24 12:36:56;;;;;;;1.25;1.15;;;14.40;55.40;;;;;;5017076;28;20084;-80
2021/10/24 12:39:26;;;;;;;1.60;1.30;;;14.50;55.80;;;;;;5018465;28;20548;-79
2021/10/24 12:41:52;;;;;;;3.33;2.00;;;14.60;55.90;;;;;;5018115;28;20116;-79
2021/10/24 12:44:32;;;;;;;2.90;1.83;;;14.70;54.40;;;;;;5000681;28;20486;-79
2021/10/24 12:47:09;;;;;;;3.28;1.80;;;14.60;54.70;;;;;;5018092;28;20133;-79
2021/10/24 12:49:36;;;;;;;2.05;1.80;;;14.50;55.10;;;;;;5018242;28;20021;-79
2021/10/24 12:52:16;;;;;;;1.38;1.27;;;14.50;55.30;;;;;;5019704;28;20095;-78
2021/10/24 12:54:45;;;;;;;1.50;1.08;;;14.60;55.40;;;;;;5018820;28;20022;-80
2021/10/24 12:57:11;;;;;;;2.65;1.30;;;14.80;54.90;;;;;;5019769;28;20034;-83
2021/10/24 12:59:37;;;;;;;1.30;1.20;;;15.00;53.60;;;;;;5020799;28;20018;-81
2021/10/24 13:02:09;;;;;;;2.67;1.42;;;15.00;53.80;;;;;;5016522;28;20098;-81
2021/10/24 13:04:35;;;;;;;;;;;15.00;53.50;;;;;;5009511;28;20034;-80
2021/10/24 13:07:00;;;;;;;1.98;1.48;;;14.90;53.40;;;;;;5026695;28;20331;-81
2021/10/24 13:09:26;;;;;;;1.83;1.33;;;14.90;53.70;;;;;;5026420;28;20037;-81